createdAt,value
2022-07-30T00:02:05.499Z,6.15
2022-07-30T00:04:34.048Z,8.00
2022-07-30T00:07:03.631Z,5.40
2022-07-30T00:09:33.282Z,5.63
2022-07-30T00:12:07.826Z,6.00
2022-07-30T00:14:35.736Z,5.90
2022-07-30T00:17:08.370Z,6.03
2022-07-30T00:19:39.407Z,6.10
2022-07-30T00:22:07.818Z,7.65
2022-07-30T00:24:36.999Z,6.60
2022-07-30T00:27:06.496Z,5.57
2022-07-30T00:29:33.727Z,6.97
2022-07-30T03:41:16.480Z,8.10
2022-07-30T03:43:45.307Z,5.65
2022-07-30T03:46:15.053Z,5.68
2022-07-30T03:48:47.829Z,7.20
2022-07-30T03:51:19.798Z,6.25
2022-07-30T03:53:47.635Z,7.10
2022-07-30T03:56:16.238Z,8.32
2022-07-30T03:58:46.271Z,7.47
2022-07-30T04:01:17.764Z,6.55
2022-07-30T04:03:49.064Z,7.10
2022-07-30T04:06:22.537Z,5.93
2022-07-30T04:08:52.087Z,8.25
2022-07-30T04:11:40.621Z,7.13
2022-07-30T04:14:14.211Z,7.88
2022-07-30T04:16:49.959Z,8.50
2022-07-30T04:19:32.711Z,7.57
2022-07-30T04:22:04.361Z,7.95
2022-07-30T04:24:37.302Z,9.50
2022-07-30T04:27:04.734Z,9.32
2022-07-30T04:29:34.092Z,9.85
2022-07-30T04:32:06.202Z,7.43
2022-07-30T04:34:39.831Z,8.27
2022-07-30T04:37:11.234Z,10.27
2022-07-30T04:39:42.977Z,12.32
2022-07-30T04:42:10.666Z,13.88
2022-07-30T04:48:29.761Z,8.93
2022-07-30T04:54:39.197Z,6.68
2022-07-30T04:57:08.551Z,9.23
2022-07-30T04:59:42.299Z,7.20
2022-07-30T05:02:14.075Z,8.23
2022-07-30T05:08:24.127Z,9.25
2022-07-30T05:10:58.567Z,9.60
2022-07-30T05:13:38.330Z,9.53
2022-07-30T05:16:09.219Z,7.53
2022-07-30T05:18:36.671Z,6.90
2022-07-30T05:21:04.626Z,8.57
2022-07-30T05:23:36.747Z,9.07
2022-07-30T05:26:06.471Z,8.18
2022-07-30T05:28:38.596Z,7.88
2022-07-30T05:31:08.601Z,8.45
2022-07-30T05:33:42.650Z,11.40
2022-07-30T05:36:11.996Z,9.27
2022-07-30T05:38:39.376Z,11.40
2022-07-30T05:41:19.130Z,11.02
2022-07-30T05:43:55.699Z,11.38
2022-07-30T05:46:24.099Z,10.93
2022-07-30T05:48:53.698Z,10.75
2022-07-30T05:51:23.698Z,10.85
2022-07-30T05:53:50.987Z,13.02
2022-07-30T05:56:26.560Z,13.73
2022-07-30T05:59:08.387Z,15.93
2022-07-30T06:01:38.232Z,13.20
2022-07-30T06:04:10.492Z,14.25
2022-07-30T06:06:39.006Z,12.13
2022-07-30T06:09:16.507Z,10.32
2022-07-30T06:11:51.558Z,10.02
2022-07-30T06:14:27.437Z,10.48
2022-07-30T06:17:04.631Z,10.75
2022-07-30T06:19:33.488Z,11.07
2022-07-30T06:22:06.372Z,10.60
2022-07-30T06:24:48.456Z,10.15
2022-07-30T06:27:54.668Z,10.38
2022-07-30T06:30:36.229Z,11.80
2022-07-30T06:33:24.701Z,9.32
2022-07-30T06:41:59.647Z,12.32
2022-07-30T06:44:43.325Z,12.70
2022-07-30T06:47:18.347Z,12.55
2022-07-30T06:50:05.776Z,10.07
2022-07-30T06:52:47.468Z,11.55
2022-07-30T06:55:27.497Z,10.35
2022-07-30T06:58:03.628Z,9.82
2022-07-30T07:00:45.229Z,13.15
2022-07-30T07:03:40.002Z,12.75
2022-07-30T07:06:22.589Z,18.30
2022-07-30T07:09:06.369Z,12.50
2022-07-30T07:11:37.983Z,13.57
2022-07-30T07:14:13.275Z,13.88
2022-07-30T07:16:50.291Z,12.73
2022-07-30T07:20:00.861Z,13.98
2022-07-30T07:22:32.422Z,12.43
2022-07-30T07:25:08.853Z,14.18
2022-07-30T07:32:06.449Z,14.80
2022-07-30T07:41:26.898Z,14.60
2022-07-30T07:43:55.088Z,13.85
2022-07-30T07:46:33.456Z,14.60
2022-07-30T07:49:06.744Z,14.40
2022-07-30T07:51:47.686Z,16.33
2022-07-30T07:57:02.416Z,16.15
2022-07-30T07:59:40.218Z,15.45
2022-07-30T08:02:12.836Z,15.45
2022-07-30T08:05:18.728Z,17.05
2022-07-30T08:07:49.657Z,15.15
2022-07-30T08:10:19.189Z,11.50
2022-07-30T08:12:49.618Z,16.58
2022-07-30T08:15:33.817Z,9.55
2022-07-30T08:18:03.277Z,17.92
2022-07-30T08:20:34.783Z,10.00
2022-07-30T08:23:04.637Z,15.90
2022-07-30T08:26:02.527Z,15.93
2022-07-30T08:28:35.966Z,15.15
2022-07-30T08:44:58.198Z,16.58
2022-07-30T08:47:45.257Z,14.88
2022-07-30T08:50:16.838Z,36.40
2022-07-30T08:52:44.798Z,10.98
2022-07-30T09:02:36.417Z,8.52
2022-07-30T09:08:59.248Z,7.65
2022-07-30T09:11:30.808Z,9.20
2022-07-30T09:32:59.399Z,7.22
2022-07-30T09:35:29.527Z,8.45
2022-07-30T09:38:25.447Z,7.60
2022-07-30T09:43:57.508Z,7.65
2022-07-30T09:47:03.200Z,7.50
2022-07-30T09:53:46.600Z,7.90
2022-07-30T09:56:33.896Z,7.32
2022-07-30T10:02:19.638Z,8.60
2022-07-30T10:05:39.368Z,8.45
2022-07-30T10:08:48.517Z,6.80
2022-07-30T10:15:20.547Z,5.60
2022-07-30T10:28:08.788Z,8.65
2022-07-30T12:29:24.442Z,9.45
2022-07-30T16:49:32.902Z,4.10
2022-07-30T16:52:02.240Z,3.88
2022-07-30T16:54:32.377Z,3.28
2022-07-30T16:57:01.749Z,5.28
2022-07-30T16:59:43.620Z,2.40
2022-07-30T17:02:13.606Z,2.65
2022-07-30T17:07:51.157Z,3.17
2022-07-30T17:10:25.482Z,2.75
2022-07-30T17:12:57.018Z,3.60
2022-07-30T17:15:32.716Z,3.33
2022-07-30T17:18:03.585Z,3.92
2022-07-30T17:20:32.106Z,3.75
2022-07-30T17:22:59.306Z,2.42
2022-07-30T17:25:29.679Z,2.65
2022-07-30T17:28:01.237Z,3.50
2022-07-30T17:30:29.576Z,4.88
2022-07-30T17:32:56.973Z,3.47
2022-07-30T17:35:26.049Z,2.63
2022-07-30T17:37:53.832Z,4.35
2022-07-30T17:40:29.371Z,4.85
2022-07-30T17:43:08.216Z,3.35
2022-07-30T17:45:37.813Z,3.83
2022-07-30T17:48:05.886Z,2.72
2022-07-30T17:50:39.728Z,3.60
2022-07-30T17:53:06.941Z,3.25
2022-07-30T17:55:36.726Z,2.30
2022-07-30T17:58:09.797Z,4.60
2022-07-30T18:00:39.438Z,3.83
2022-07-30T18:03:06.657Z,4.68
2022-07-30T18:05:36.147Z,3.75
2022-07-30T18:08:03.356Z,3.53
2022-07-30T18:10:31.582Z,2.03
2022-07-30T18:13:25.959Z,5.88
2022-07-30T18:15:54.592Z,4.22
2022-07-30T18:18:21.887Z,3.03
2022-07-30T18:20:51.827Z,3.47
2022-07-30T18:23:20.035Z,4.57
2022-07-30T18:25:51.858Z,5.78
2022-07-30T18:28:26.664Z,3.88
2022-07-30T18:30:55.220Z,3.00
2022-07-30T18:33:24.761Z,7.00
2022-07-30T18:35:52.362Z,4.28
2022-07-30T18:38:24.527Z,4.40
2022-07-30T18:41:02.710Z,3.97
2022-07-30T18:43:48.061Z,6.63
2022-07-30T18:46:16.302Z,4.50
2022-07-30T18:48:43.689Z,3.70
2022-07-30T18:51:14.001Z,4.10
2022-07-30T18:53:42.822Z,4.68
2022-07-30T18:56:10.443Z,3.13
2022-07-30T18:58:38.563Z,4.88
2022-07-30T19:01:06.044Z,4.47
2022-07-30T19:03:35.249Z,3.40
2022-07-30T19:06:02.453Z,2.72
2022-07-30T19:08:29.652Z,4.88
2022-07-30T19:10:56.837Z,5.30
2022-07-30T19:13:26.202Z,4.90
2022-07-30T19:15:56.517Z,3.83
2022-07-30T19:18:26.008Z,3.30
2022-07-30T19:20:53.149Z,3.20
2022-07-30T19:23:20.717Z,5.82
2022-07-30T19:25:48.127Z,3.00
2022-07-30T19:28:17.237Z,3.80
2022-07-30T19:30:44.981Z,4.00
2022-07-30T19:33:15.405Z,3.50
2022-07-30T19:35:43.587Z,3.40
2022-07-30T19:38:11.827Z,3.42
2022-07-30T19:40:42.562Z,4.53
2022-07-30T19:43:10.484Z,3.97
2022-07-30T19:45:47.186Z,6.07
2022-07-30T19:48:28.992Z,5.18
2022-07-30T19:51:02.447Z,4.18
2022-07-30T19:53:34.350Z,4.72
2022-07-30T19:56:08.351Z,5.97
2022-07-30T19:58:40.235Z,3.00
2022-07-30T20:01:08.893Z,4.00
2022-07-30T20:03:37.093Z,4.25
2022-07-30T20:06:07.440Z,7.15
2022-07-30T20:08:35.788Z,4.53
2022-07-30T20:11:08.542Z,4.07
2022-07-30T20:13:45.450Z,4.60
2022-07-30T20:16:17.787Z,4.35
2022-07-30T20:18:46.158Z,5.30
2022-07-30T20:21:16.746Z,4.15
2022-07-30T20:23:45.168Z,3.10
2022-07-30T20:26:14.926Z,5.25
2022-07-30T20:28:45.665Z,5.10
2022-07-30T20:31:13.308Z,4.03
2022-07-30T20:33:43.358Z,4.00
2022-07-30T20:36:22.566Z,7.68
2022-07-30T20:38:49.862Z,6.40
2022-07-30T20:41:19.377Z,4.97
2022-07-30T20:43:52.586Z,4.60
2022-07-30T20:46:24.456Z,5.22
2022-07-30T20:48:53.908Z,7.55
2022-07-30T20:51:21.494Z,4.93
2022-07-30T20:54:01.974Z,4.45
2022-07-30T20:56:31.339Z,3.20
2022-07-30T20:58:58.456Z,4.05
2022-07-30T21:01:30.821Z,5.88
2022-07-30T21:03:58.126Z,6.00
2022-07-30T21:06:26.393Z,3.95
2022-07-30T21:08:57.294Z,3.67
2022-07-30T21:11:26.388Z,3.40
2022-07-30T21:13:59.498Z,6.95
2022-07-30T21:16:30.530Z,4.07
2022-07-30T21:22:31.797Z,4.25
2022-07-30T21:24:59.056Z,4.15
2022-07-30T21:27:31.528Z,5.25
2022-07-30T21:30:00.036Z,5.75
2022-07-30T21:32:27.367Z,6.18
2022-07-30T21:35:01.341Z,4.82
2022-07-30T21:37:44.298Z,4.25
2022-07-30T21:40:15.123Z,3.75
2022-07-30T21:42:48.568Z,4.05
2022-07-30T21:45:16.327Z,4.57
2022-07-30T21:47:48.199Z,3.50
2022-07-30T21:50:20.156Z,3.65
2022-07-30T21:52:52.298Z,4.15
2022-07-30T21:55:19.526Z,4.82
2022-07-30T21:57:48.747Z,4.55
2022-07-30T22:00:22.476Z,5.00
2022-07-30T22:02:53.206Z,5.13
2022-07-30T22:08:15.567Z,4.13
2022-07-30T22:10:48.137Z,4.43
2022-07-30T22:13:22.221Z,4.22
2022-07-30T22:15:55.087Z,3.40
2022-07-30T22:18:23.846Z,4.03
2022-07-30T22:20:59.282Z,3.20
2022-07-30T22:23:26.526Z,5.30
2022-07-30T22:25:54.175Z,5.65
2022-07-30T22:28:35.325Z,4.57
2022-07-30T22:31:05.676Z,4.00
2022-07-30T22:33:37.218Z,4.78
2022-07-30T22:36:12.646Z,4.00
2022-07-30T22:38:58.839Z,5.82
2022-07-30T22:41:29.127Z,5.13
2022-07-30T22:44:02.545Z,4.90
2022-07-30T22:46:35.337Z,4.97
2022-07-30T22:49:04.187Z,3.30
2022-07-30T22:51:58.675Z,3.30
2022-07-30T22:54:23.547Z,4.30
2022-07-30T22:57:04.179Z,3.97
2022-07-30T22:59:58.413Z,3.35
2022-07-30T23:02:22.986Z,3.78
2022-07-30T23:04:50.560Z,3.00
2022-07-30T23:07:19.088Z,3.17
2022-07-30T23:09:49.229Z,3.63
2022-07-30T23:12:22.158Z,3.92
2022-07-30T23:12:28.193Z,5.93
2022-07-30T23:14:49.480Z,2.90
2022-07-30T23:17:17.866Z,3.53
2022-07-30T23:19:51.638Z,5.30
2022-07-30T23:22:20.077Z,5.50
2022-07-30T23:24:47.324Z,2.97
2022-07-30T23:27:25.625Z,2.47
2022-07-30T23:29:52.795Z,3.95
2022-07-30T23:32:22.235Z,3.95
2022-07-30T23:34:52.034Z,3.30
2022-07-30T23:37:22.916Z,3.85
2022-07-30T23:39:52.165Z,3.60
2022-07-30T23:42:22.484Z,3.83
2022-07-30T23:44:54.084Z,5.18
2022-07-30T23:47:51.175Z,3.42
2022-07-30T23:50:10.934Z,3.08
2022-07-30T23:52:38.194Z,4.38
2022-07-30T23:55:08.794Z,3.83
2022-07-30T23:57:38.335Z,3.55
